ADDS METAR Data INFO
IDs: Format: Raw Decoded Include TAF

Data at: 2255 UTC 22 Jun 2018

KVTN 222252Z AUTO 16013G22KT 10SM CLR 27/13 A2980 RMK AO2 SLP077 T02670128
KVTN 222152Z AUTO 15016G24KT 10SM FEW075 27/13 A2982 RMK AO2 SLP081 T02720128
KVTN 222052Z AUTO 18015G24KT 10SM FEW080 28/13 A2983 RMK AO2 SLP087 T02780128 58022
KVTN 221952Z AUTO 18013G21KT 10SM CLR 27/12 A2985 RMK AO2 SLP094 T02670122
KVTN 221852Z AUTO 16011G19KT 10SM SCT110 25/11 A2989 RMK AO2 SLP106 T02500111
KVTN 221752Z AUTO 15014G19KT 10SM SCT110 25/12 A2990 RMK AO2 SLP112 T02500122 10256 20128 58016
KVTN 221652Z AUTO 15014KT 10SM SCT110 24/11 A2992 RMK AO2 SLP117 T02440111
KVTN 221552Z AUTO 18010KT 10SM OVC100 22/13 A2994 RMK AO2 SLP123 T02220128
KVTN 221452Z AUTO 19010KT 10SM BKN100 21/13 A2996 RMK AO2 SLP128 T02110133 56007
KVTN 221352Z AUTO 17008KT 10SM CLR 19/14 A2996 RMK AO2 SLP129 T01940139
KVTN 221252Z AUTO 16004KT 10SM FEW120 17/14 A2997 RMK AO2 SLP131 T01670144
KVTN 221152Z AUTO 09004KT 10SM CLR 13/12 A2998 RMK AO2 SLP138 T01280122 10150 20111 53005
KVTN 221052Z AUTO 00000KT 10SM CLR 12/11 A2996 RMK AO2 SLP130 T01220111
KVTN 220952Z AUTO 11005KT 10SM CLR 12/12 A2994 RMK AO2 SLP124 T01220117
KVTN 220852Z AUTO 24005KT 7SM CLR 12/11 A2996 RMK AO2 SLP132 T01170111 55020
KVTN 220752Z AUTO 04003KT 10SM CLR 13/13 A2996 RMK AO2 SLP130 T01330128
KVTN 220652Z AUTO 22006KT 10SM CLR 13/12 A3001 RMK AO2 SLP147 T01330122
KVTN 220552Z AUTO 00000KT 10SM CLR 14/13 A3003 RMK AO2 SLP154 T01390128 10261 20139 402720133 50014
KVTN 220452Z AUTO 26003KT 10SM CLR 16/13 A3003 RMK AO2 SLP155 T01560133
KVTN 220352Z AUTO 00000KT 10SM CLR 18/14 A3001 RMK AO2 SLP148 T01830144
KVTN 220252Z AUTO 07006KT 10SM CLR 19/13 A2998 RMK AO2 SLP137 T01940133 58004
KVTN 220152Z AUTO 06004KT 10SM CLR 21/13 A2998 RMK AO2 SLP139 T02110128
KVTN 220052Z AUTO 06009KT 10SM CLR 25/13 A2999 RMK AO2 SLP142 T02500128
KVTN 212352Z AUTO 03010G19KT 10SM CLR 26/11 A2999 RMK AO2 SLP142 T02610106 10272 20250 58003
KVTN 212252Z AUTO 01009KT 10SM CLR 27/11 A3000 RMK AO2 SLP144 T02720111
KVTN 212152Z AUTO 01015G22KT 10SM FEW085 27/12 A3001 RMK AO2 SLP146 T02720117
KVTN 212052Z AUTO 36014G20KT 10SM SCT060 27/12 A3000 RMK AO2 SLP143 T02720122 58007
KVTN 211952Z AUTO 36012G23KT 10SM FEW055 27/12 A3001 RMK AO2 SLP147 T02670117
KVTN 211852Z AUTO 36010G20KT 10SM CLR 27/11 A3002 RMK AO2 SLP150 T02670111
KVTN 211752Z AUTO 34008G20KT 10SM CLR 25/12 A3003 RMK AO2 SLP153 T02500122 10250 20133 58010
KVTN 211652Z AUTO 33010KT 10SM OVC080 23/13 A3004 RMK AO2 SLP160 T02330128
KVTN 211552Z AUTO 01012KT 10SM BKN080 22/12 A3005 RMK AO2 SLP165 T02170122
KVTN 211452Z AUTO 34006G15KT 10SM SCT080 22/13 A3006 RMK AO2 SLP165 T02170128 51010
KVTN 211352Z AUTO 34010KT 10SM CLR 19/13 A3005 RMK AO2 SLP163 T01890133
KVTN 211252Z AUTO 33004KT 10SM OVC065 15/13 A3005 RMK AO2 SLP162 T01500133
KVTN 211152Z AUTO 30007KT 10SM CLR 13/12 A3003 RMK AO2 SLP157 70050 T01330122 10144 20133 53003